Candiac, Canada
Current Conditions -  °F | °C
As of 2:00 AM on Monday 24 Nov 2014 (Local Time) from CYHU Reporting Station
Broken Clouds Broken Clouds  
Wind Chill: 41°   Ceiling: 10000
Heat Index: 45°   Visibility: 9mi
Dew Point: 39°   Wind: 7mph
Humidity: 81%   Direction: 120°ESE
Pressure: 29.82"   Gusts: NA
Location:  45.38°N, 73.52°W
Report Text: CYHU 240700Z AUTO 12006KT 9SM BKN100 BKN250 07/04 A2982 RMK PRESFR SLP100
Loading
Personal Weather Stations






























Interactive Weather Map New forecast layout! Learn more

10-Day Weather Forecast

Advertisements
Track Severe Weather on mobile